createdAt,value
2017-09-07T00:00:08.147Z,16.15
2017-09-07T00:00:34.289Z,16.16
2017-09-07T00:01:00.363Z,16.12
2017-09-07T00:01:26.477Z,16.09
2017-09-07T00:01:52.585Z,16.09
2017-09-07T00:02:18.688Z,16.09
2017-09-07T00:02:44.798Z,16.21
2017-09-07T00:03:10.904Z,16.21
2017-09-07T00:03:37.047Z,16.15
2017-09-07T00:04:03.202Z,16.31
2017-09-07T00:04:29.306Z,16.28
2017-09-07T00:04:55.418Z,16.28
2017-09-07T00:05:21.524Z,16.28
2017-09-07T00:05:47.808Z,16.31
2017-09-07T00:06:13.912Z,16.21
2017-09-07T00:06:40.020Z,16.28
2017-09-07T00:07:06.134Z,16.26
2017-09-07T00:07:32.238Z,16.28
2017-09-07T00:07:58.377Z,16.23
2017-09-07T00:08:24.478Z,16.26
2017-09-07T00:08:50.584Z,16.32
2017-09-07T00:09:16.695Z,16.24
2017-09-07T00:09:42.857Z,16.17
2017-09-07T00:10:09.040Z,16.15
2017-09-07T00:10:35.150Z,16.12
2017-09-07T00:11:01.256Z,16.23
2017-09-07T00:11:27.406Z,16.21
2017-09-07T00:11:53.506Z,16.12
2017-09-07T00:12:19.669Z,16.15
2017-09-07T00:12:45.777Z,16.2
2017-09-07T00:13:11.887Z,16.2
2017-09-07T00:13:37.996Z,16.28
2017-09-07T00:14:04.102Z,16.28
2017-09-07T00:14:30.239Z,16.31
2017-09-07T00:14:56.340Z,16.28
2017-09-07T00:15:22.455Z,16.28
2017-09-07T00:15:48.564Z,16.23
2017-09-07T00:16:14.699Z,16.26
2017-09-07T00:16:40.806Z,16.28
2017-09-07T00:17:06.911Z,16.35
2017-09-07T00:17:33.043Z,16.26
2017-09-07T00:17:59.154Z,16.31
2017-09-07T00:18:25.290Z,16.15
2017-09-07T00:18:51.401Z,16.16
2017-09-07T00:19:17.509Z,16.16
2017-09-07T00:19:43.657Z,16.15
2017-09-07T00:20:09.764Z,16.16
2017-09-07T00:20:35.871Z,16.08
2017-09-07T00:21:01.984Z,16.08
2017-09-07T00:21:28.101Z,16.09
2017-09-07T00:21:54.217Z,16.08
2017-09-07T00:22:20.321Z,16.16
2017-09-07T00:22:46.428Z,16.17
2017-09-07T00:23:12.546Z,16.12
2017-09-07T00:23:38.677Z,16.16
2017-09-07T00:24:04.788Z,16.13
2017-09-07T00:24:30.892Z,16.2
2017-09-07T00:24:57.054Z,16.15
2017-09-07T00:25:23.308Z,16.15
2017-09-07T00:25:49.425Z,16.17
2017-09-07T00:26:15.536Z,16.2
2017-09-07T00:26:41.658Z,16.2
2017-09-07T00:27:07.802Z,16.33
2017-09-07T00:27:33.906Z,16.31
2017-09-07T00:28:00.013Z,16.23
2017-09-07T00:28:26.124Z,16.28
2017-09-07T00:28:52.234Z,16.29
2017-09-07T00:29:18.337Z,16.28
2017-09-07T00:29:44.450Z,16.21
2017-09-07T00:30:10.557Z,16.29
2017-09-07T00:30:36.668Z,16.29
2017-09-07T00:31:02.877Z,16.28
2017-09-07T00:31:28.979Z,16.29
2017-09-07T00:31:55.091Z,16.29
2017-09-07T00:32:21.203Z,16.31
2017-09-07T00:32:47.306Z,16.23
2017-09-07T00:33:13.466Z,16.28
2017-09-07T00:33:39.572Z,16.15
2017-09-07T00:34:05.685Z,16.17
2017-09-07T00:34:31.789Z,16.09
2017-09-07T00:34:57.953Z,16.16
2017-09-07T00:35:24.052Z,16.13
2017-09-07T00:35:50.153Z,16.02
2017-09-07T00:36:16.267Z,16.12
2017-09-07T00:36:42.373Z,16.09
2017-09-07T00:37:08.673Z,16.01
2017-09-07T00:37:34.785Z,16.08
2017-09-07T00:38:00.890Z,15.91
2017-09-07T00:38:27.007Z,16
2017-09-07T00:38:53.119Z,15.92
2017-09-07T00:39:19.240Z,15.94
2017-09-07T00:39:45.351Z,16.01
2017-09-07T00:40:11.459Z,16.02
2017-09-07T00:40:37.587Z,16.05
2017-09-07T00:41:03.680Z,15.94
2017-09-07T00:41:29.792Z,16.1
2017-09-07T00:41:55.903Z,16.12
2017-09-07T00:42:22.020Z,15.98
2017-09-07T00:42:48.142Z,15.92
2017-09-07T00:43:14.241Z,15.98
2017-09-07T00:43:40.352Z,15.95
2017-09-07T00:44:06.514Z,15.97
2017-09-07T00:44:32.612Z,16.08
2017-09-07T00:44:58.737Z,16.08
2017-09-07T00:45:24.847Z,16.02
2017-09-07T00:45:50.950Z,16
2017-09-07T00:46:17.106Z,16.08
2017-09-07T00:46:43.222Z,16
2017-09-07T00:47:09.332Z,16.01
2017-09-07T00:47:35.440Z,16.13
2017-09-07T00:48:01.554Z,16.08
2017-09-07T00:48:27.660Z,16.05
2017-09-07T00:48:53.765Z,16.13
2017-09-07T00:49:19.878Z,16.17
2017-09-07T00:49:45.982Z,16.12
2017-09-07T00:50:12.096Z,16.2
2017-09-07T00:50:38.199Z,16.2
2017-09-07T00:51:04.318Z,16.24
2017-09-07T00:51:30.423Z,16.2
2017-09-07T00:51:56.528Z,16.21
2017-09-07T00:52:22.632Z,16.28
2017-09-07T00:52:48.745Z,16.28
2017-09-07T00:53:14.856Z,16.31
2017-09-07T00:53:40.977Z,16.24
2017-09-07T00:54:07.089Z,16.1
2017-09-07T00:54:33.193Z,16.17
2017-09-07T00:54:59.303Z,16.13
2017-09-07T00:55:25.411Z,16.16
2017-09-07T00:55:51.518Z,16.26
2017-09-07T00:56:17.622Z,16.24
2017-09-07T00:56:43.735Z,16.23
2017-09-07T00:57:09.841Z,16.24
2017-09-07T00:57:35.944Z,16.12
2017-09-07T00:58:02.054Z,16.12
2017-09-07T00:58:28.163Z,16.08
2017-09-07T00:58:54.324Z,16.16
2017-09-07T00:59:20.490Z,16.01
2017-09-07T00:59:46.609Z,16
2017-09-07T01:00:12.717Z,16.09
2017-09-07T01:00:38.823Z,16.01
2017-09-07T01:01:04.928Z,15.98
2017-09-07T01:01:31.062Z,16.05
2017-09-07T01:01:57.176Z,16.01
2017-09-07T01:02:23.280Z,16.08
2017-09-07T01:02:49.395Z,16
2017-09-07T01:03:15.500Z,16.1
2017-09-07T01:03:41.614Z,16.02
2017-09-07T01:04:07.720Z,16
2017-09-07T01:04:33.837Z,16.02
2017-09-07T01:04:59.939Z,16.1
2017-09-07T01:05:26.050Z,16.01
2017-09-07T01:05:52.243Z,16.09
2017-09-07T01:06:18.354Z,16.02
2017-09-07T01:06:44.460Z,16.09
2017-09-07T01:07:10.568Z,15.98
2017-09-07T01:07:36.680Z,16.02
2017-09-07T01:08:02.797Z,16.02
2017-09-07T01:08:28.893Z,16.01
2017-09-07T01:08:55.005Z,16.01
2017-09-07T01:09:21.113Z,15.98
2017-09-07T01:09:47.216Z,15.98
2017-09-07T01:10:13.331Z,16
2017-09-07T01:10:39.436Z,16.02
2017-09-07T01:11:05.545Z,16.05
2017-09-07T01:11:31.681Z,16.08
2017-09-07T01:11:57.784Z,16.01
2017-09-07T01:12:23.891Z,15.95
2017-09-07T01:12:50.042Z,16.08
2017-09-07T01:13:16.157Z,16.04
2017-09-07T01:13:42.261Z,16.02
2017-09-07T01:14:08.369Z,16.04
2017-09-07T01:14:34.480Z,16.04
2017-09-07T01:15:00.586Z,16.08
2017-09-07T01:15:26.696Z,16.04
2017-09-07T01:15:52.805Z,16.05
2017-09-07T01:16:18.917Z,16
2017-09-07T01:16:45.042Z,16.04
2017-09-07T01:17:11.156Z,16.15
2017-09-07T01:17:37.282Z,16.04
2017-09-07T01:18:03.388Z,16.13
2017-09-07T01:18:29.519Z,16.13
2017-09-07T01:18:55.625Z,16.09
2017-09-07T01:19:21.741Z,16.12
2017-09-07T01:19:47.917Z,16.08
2017-09-07T01:20:14.025Z,15.98
2017-09-07T01:20:40.122Z,16.1
2017-09-07T01:21:06.236Z,16.04
2017-09-07T01:21:32.341Z,16.12
2017-09-07T01:21:58.452Z,16
2017-09-07T01:22:24.559Z,15.97
2017-09-07T01:22:50.664Z,16.02
2017-09-07T01:23:16.774Z,16.09
2017-09-07T01:23:42.882Z,16.13
2017-09-07T01:24:08.996Z,16.1
2017-09-07T01:24:35.108Z,16.02
2017-09-07T01:25:01.242Z,16.15
2017-09-07T01:25:27.353Z,16.08
2017-09-07T01:25:53.458Z,15.95
2017-09-07T01:26:19.567Z,15.95
2017-09-07T01:26:45.739Z,15.97
2017-09-07T01:27:11.844Z,16
2017-09-07T01:27:37.948Z,16.01
2017-09-07T01:28:04.058Z,15.97
2017-09-07T01:28:30.162Z,16.12
2017-09-07T01:28:56.274Z,16.09
2017-09-07T01:29:22.404Z,16.1
2017-09-07T01:29:48.517Z,16.12
2017-09-07T01:30:14.626Z,16.09
2017-09-07T01:30:40.728Z,16.15
2017-09-07T01:31:06.839Z,16.17
2017-09-07T01:31:32.945Z,16.2
2017-09-07T01:31:59.047Z,16.15
2017-09-07T01:32:25.153Z,16.13
2017-09-07T01:32:51.264Z,16.13
2017-09-07T01:33:17.374Z,16.12
2017-09-07T01:33:43.535Z,16.21
2017-09-07T01:34:09.647Z,16.15
2017-09-07T01:34:35.760Z,16.21
2017-09-07T01:35:01.875Z,16.24
2017-09-07T01:35:27.986Z,16.21
2017-09-07T01:35:54.116Z,16.16
2017-09-07T01:36:20.217Z,16.13
2017-09-07T01:36:46.323Z,16.1
2017-09-07T01:37:12.434Z,16.08
2017-09-07T01:37:38.542Z,16.15
2017-09-07T01:38:04.673Z,16.12
2017-09-07T01:38:30.765Z,16.16
2017-09-07T01:38:56.886Z,16.1
2017-09-07T01:39:22.995Z,16.09
2017-09-07T01:39:49.105Z,16.1
2017-09-07T01:40:15.214Z,16.04
2017-09-07T01:40:41.341Z,16.08
2017-09-07T01:41:07.449Z,16.09
2017-09-07T01:41:33.565Z,16.1
2017-09-07T01:41:59.674Z,16.09
2017-09-07T01:42:25.798Z,16.13
2017-09-07T01:42:51.914Z,16
2017-09-07T01:43:18.049Z,16.04
2017-09-07T01:43:44.132Z,16.05
2017-09-07T01:44:10.235Z,16.02
2017-09-07T01:44:36.350Z,16.01
2017-09-07T01:45:02.455Z,15.97
2017-09-07T01:45:28.561Z,15.98
2017-09-07T01:45:54.674Z,15.97
2017-09-07T01:46:20.778Z,15.95
2017-09-07T01:46:46.888Z,16.02
2017-09-07T01:47:13.000Z,16.1
2017-09-07T01:47:39.116Z,16.04
2017-09-07T01:48:05.229Z,16.05
2017-09-07T01:48:31.341Z,15.94
2017-09-07T01:48:57.451Z,16.02
2017-09-07T01:49:23.554Z,16.05
2017-09-07T01:49:49.668Z,16.05
2017-09-07T01:50:15.771Z,16.13
2017-09-07T01:50:41.878Z,16.13
2017-09-07T01:51:08.008Z,16.13
2017-09-07T01:51:34.112Z,16.13
2017-09-07T01:52:00.225Z,16.08
2017-09-07T01:52:26.337Z,16.13
2017-09-07T01:52:52.440Z,16.08
2017-09-07T01:53:18.557Z,16.15
2017-09-07T01:53:44.660Z,16.09
2017-09-07T01:54:10.766Z,16.09
2017-09-07T01:54:36.893Z,16.15
2017-09-07T01:55:03.005Z,16.1
2017-09-07T01:55:29.110Z,16.15
2017-09-07T01:55:55.216Z,16.05
2017-09-07T01:56:21.321Z,16
2017-09-07T01:56:47.460Z,16.02
2017-09-07T01:57:13.559Z,16
2017-09-07T01:57:39.676Z,15.94
2017-09-07T01:58:05.784Z,15.98
2017-09-07T01:58:31.895Z,15.97
2017-09-07T01:58:58.000Z,15.95
2017-09-07T01:59:24.103Z,15.92
2017-09-07T01:59:50.217Z,15.9
2017-09-07T02:00:16.340Z,15.91
2017-09-07T02:00:42.447Z,15.91
2017-09-07T02:01:08.608Z,15.73
2017-09-07T02:01:34.718Z,15.68
2017-09-07T02:02:00.818Z,15.67
2017-09-07T02:02:26.948Z,15.72
2017-09-07T02:02:53.076Z,15.68
2017-09-07T02:03:19.175Z,15.62
2017-09-07T02:03:45.289Z,15.72
2017-09-07T02:04:11.395Z,15.7
2017-09-07T02:04:37.513Z,15.76
2017-09-07T02:05:03.685Z,15.82
2017-09-07T02:05:29.836Z,15.75
2017-09-07T02:05:55.950Z,15.88
2017-09-07T02:06:22.069Z,15.83
2017-09-07T02:06:48.222Z,15.86
2017-09-07T02:07:14.337Z,15.92
2017-09-07T02:07:40.440Z,16
2017-09-07T02:08:06.570Z,16.05
2017-09-07T02:08:32.672Z,15.97
2017-09-07T02:08:58.779Z,15.98
2017-09-07T02:09:24.893Z,15.94
2017-09-07T02:09:50.996Z,15.97
2017-09-07T02:10:17.142Z,15.97
2017-09-07T02:10:43.245Z,16.02
2017-09-07T02:11:09.358Z,16.05
2017-09-07T02:11:35.460Z,16.09
2017-09-07T02:12:01.574Z,16.05
2017-09-07T02:12:27.683Z,16.05
2017-09-07T02:12:53.787Z,16.01
2017-09-07T02:13:19.903Z,15.98
2017-09-07T02:13:46.056Z,15.97
2017-09-07T02:14:12.184Z,16.04
2017-09-07T02:14:38.283Z,16.1
2017-09-07T02:15:04.390Z,15.91
2017-09-07T02:15:30.527Z,16.02
2017-09-07T02:15:56.636Z,15.92
2017-09-07T02:16:22.740Z,16.01
2017-09-07T02:16:48.852Z,15.94
2017-09-07T02:17:14.959Z,15.95
2017-09-07T02:17:41.104Z,16
2017-09-07T02:18:07.212Z,16.04
2017-09-07T02:18:33.318Z,15.95
2017-09-07T02:18:59.434Z,16.01
2017-09-07T02:19:25.590Z,16.02
2017-09-07T02:19:51.700Z,16
2017-09-07T02:20:17.801Z,16.05
2017-09-07T02:20:43.908Z,16.02
2017-09-07T02:21:10.021Z,16.01
2017-09-07T02:21:36.132Z,15.98
2017-09-07T02:22:02.237Z,16
2017-09-07T02:22:28.370Z,16
2017-09-07T02:22:54.476Z,15.97
2017-09-07T02:23:20.590Z,16.05
2017-09-07T02:23:46.704Z,16.1
2017-09-07T02:24:12.805Z,16.08
2017-09-07T02:24:38.913Z,16.09
2017-09-07T02:25:05.027Z,16.1
2017-09-07T02:25:31.140Z,16.16
2017-09-07T02:25:57.241Z,16.1
2017-09-07T02:26:23.350Z,16.09
2017-09-07T02:26:49.463Z,16.12
2017-09-07T02:27:15.575Z,16.15
2017-09-07T02:27:41.680Z,16.17
2017-09-07T02:28:07.795Z,16.15
2017-09-07T02:28:33.898Z,16.17
2017-09-07T02:29:00.016Z,16.17
2017-09-07T02:29:26.128Z,16.17
2017-09-07T02:29:52.235Z,16.1
2017-09-07T02:30:18.353Z,16.12
2017-09-07T02:30:44.451Z,16.17
2017-09-07T02:31:10.568Z,16.17
2017-09-07T02:31:36.677Z,16.1
2017-09-07T02:32:02.781Z,16.09
2017-09-07T02:32:28.895Z,16.13
2017-09-07T02:32:55.002Z,16.09
2017-09-07T02:33:21.106Z,16.1
2017-09-07T02:33:47.226Z,16.12
2017-09-07T02:34:13.332Z,16.1
2017-09-07T02:34:39.456Z,16.2
2017-09-07T02:35:05.571Z,16.13
2017-09-07T02:35:31.670Z,16.21
2017-09-07T02:35:57.777Z,16.21
2017-09-07T02:36:23.889Z,16.29
2017-09-07T02:36:49.998Z,16.17
2017-09-07T02:37:16.120Z,16.13
2017-09-07T02:37:42.234Z,16.05
2017-09-07T02:38:08.339Z,16.05
2017-09-07T02:38:34.456Z,16
2017-09-07T02:39:00.565Z,16.08
2017-09-07T02:39:26.732Z,15.98
2017-09-07T02:39:52.820Z,16.1
2017-09-07T02:40:18.927Z,16.08
2017-09-07T02:40:45.031Z,16.05
2017-09-07T02:41:11.142Z,15.97
2017-09-07T02:41:37.270Z,16
2017-09-07T02:42:03.379Z,16
2017-09-07T02:42:29.488Z,15.98
2017-09-07T02:42:55.596Z,16.04
2017-09-07T02:43:21.701Z,16.08
2017-09-07T02:43:47.805Z,16.05
2017-09-07T02:44:13.945Z,16
2017-09-07T02:44:40.046Z,16.02
2017-09-07T02:45:06.160Z,16.01
2017-09-07T02:45:32.259Z,15.97
2017-09-07T02:45:58.389Z,15.97
2017-09-07T02:46:24.492Z,16.02
2017-09-07T02:46:50.622Z,15.91
2017-09-07T02:47:16.728Z,15.92
2017-09-07T02:47:42.840Z,15.86
2017-09-07T02:48:08.945Z,15.82
2017-09-07T02:48:35.089Z,15.82
2017-09-07T02:49:01.193Z,15.9
2017-09-07T02:49:27.300Z,15.8
2017-09-07T02:49:53.402Z,15.86
2017-09-07T02:50:19.516Z,15.88
2017-09-07T02:50:45.658Z,15.83
2017-09-07T02:51:11.761Z,15.84
2017-09-07T02:51:37.894Z,15.88
2017-09-07T02:52:04.000Z,15.9
2017-09-07T02:52:30.105Z,15.84
2017-09-07T02:52:56.218Z,15.86
2017-09-07T02:53:22.332Z,15.92
2017-09-07T02:53:48.439Z,16.01
2017-09-07T02:54:14.542Z,15.95
2017-09-07T02:54:40.657Z,16.02
2017-09-07T02:55:06.778Z,15.97
2017-09-07T02:55:32.888Z,15.98
2017-09-07T02:55:58.990Z,15.98
2017-09-07T02:56:25.101Z,16.02
2017-09-07T02:56:51.214Z,15.92
2017-09-07T02:57:17.328Z,15.95
2017-09-07T02:57:43.458Z,15.84
2017-09-07T02:58:09.569Z,15.86
2017-09-07T02:58:35.674Z,15.84
2017-09-07T02:59:01.788Z,15.9
2017-09-07T02:59:27.887Z,15.83
2017-09-07T02:59:54.002Z,15.95
2017-09-07T03:00:20.129Z,15.95
2017-09-07T03:00:46.238Z,15.82
2017-09-07T03:01:12.345Z,15.86
2017-09-07T03:01:38.448Z,15.86
2017-09-07T03:02:04.556Z,15.83
2017-09-07T03:02:30.676Z,15.84
2017-09-07T03:02:56.786Z,15.86
2017-09-07T03:03:22.893Z,15.92
2017-09-07T03:03:49.003Z,15.98
2017-09-07T03:04:15.111Z,16
2017-09-07T03:04:41.221Z,15.95
2017-09-07T03:05:07.330Z,15.94
2017-09-07T03:05:33.448Z,15.94
2017-09-07T03:05:59.551Z,16
2017-09-07T03:06:25.661Z,16.01
2017-09-07T03:06:51.767Z,15.95
2017-09-07T03:07:17.878Z,15.95
2017-09-07T03:07:43.993Z,15.97
2017-09-07T03:08:10.099Z,16
2017-09-07T03:08:36.205Z,15.84
2017-09-07T03:09:02.310Z,15.88
2017-09-07T03:09:28.484Z,15.95
2017-09-07T03:09:54.596Z,15.86
2017-09-07T03:10:20.702Z,15.97
2017-09-07T03:10:46.814Z,15.98
2017-09-07T03:11:12.957Z,15.98
2017-09-07T03:11:39.063Z,15.86
2017-09-07T03:12:05.191Z,15.88
2017-09-07T03:12:31.292Z,15.84
2017-09-07T03:12:57.474Z,15.9
2017-09-07T03:13:23.581Z,15.88
2017-09-07T03:13:49.686Z,15.94
2017-09-07T03:14:15.797Z,15.8
2017-09-07T03:14:41.927Z,15.86
2017-09-07T03:15:08.039Z,15.88
2017-09-07T03:15:34.144Z,15.9
2017-09-07T03:16:00.296Z,15.88
2017-09-07T03:16:26.418Z,15.95
2017-09-07T03:16:52.521Z,15.92
2017-09-07T03:17:18.685Z,15.91
2017-09-07T03:17:44.790Z,15.91
2017-09-07T03:18:10.902Z,15.83
2017-09-07T03:18:37.003Z,15.84
2017-09-07T03:19:03.137Z,15.8
2017-09-07T03:19:29.248Z,15.72
2017-09-07T03:19:55.354Z,15.91
2017-09-07T03:20:21.467Z,15.76
2017-09-07T03:20:47.568Z,15.82
2017-09-07T03:21:13.675Z,15.84
2017-09-07T03:21:39.789Z,15.88
2017-09-07T03:22:05.894Z,15.86
2017-09-07T03:22:32.005Z,15.94
2017-09-07T03:22:58.109Z,15.76
2017-09-07T03:23:24.214Z,15.83
2017-09-07T03:23:50.320Z,15.83
2017-09-07T03:24:16.434Z,15.86
2017-09-07T03:24:42.544Z,15.84
2017-09-07T03:25:08.652Z,15.88
2017-09-07T03:25:34.760Z,15.82
2017-09-07T03:26:00.871Z,15.9
2017-09-07T03:26:26.974Z,15.84
2017-09-07T03:26:53.086Z,15.92
2017-09-07T03:27:19.187Z,15.94
2017-09-07T03:27:45.298Z,15.83
2017-09-07T03:28:11.422Z,15.84
2017-09-07T03:28:37.530Z,15.83
2017-09-07T03:29:03.637Z,15.68
2017-09-07T03:29:29.748Z,15.68
2017-09-07T03:29:55.859Z,15.73
2017-09-07T03:30:21.966Z,15.92
2017-09-07T03:30:48.077Z,15.86
2017-09-07T03:31:14.179Z,15.77
2017-09-07T03:31:40.286Z,15.86
2017-09-07T03:32:06.400Z,15.86
2017-09-07T03:32:32.502Z,15.79
2017-09-07T03:32:58.618Z,15.8
2017-09-07T03:33:24.727Z,15.86
2017-09-07T03:33:50.830Z,15.77
2017-09-07T03:34:16.941Z,15.77
2017-09-07T03:34:43.044Z,15.83
2017-09-07T03:35:09.158Z,15.91
2017-09-07T03:35:35.263Z,15.86
2017-09-07T03:36:01.367Z,15.82
2017-09-07T03:36:27.480Z,15.77
2017-09-07T03:36:53.588Z,15.84
2017-09-07T03:37:19.712Z,15.84
2017-09-07T03:37:45.824Z,15.8
2017-09-07T03:38:11.925Z,15.72
2017-09-07T03:38:38.038Z,15.75
2017-09-07T03:39:04.142Z,15.75
2017-09-07T03:39:30.248Z,15.75
2017-09-07T03:39:56.362Z,15.75
2017-09-07T03:40:22.472Z,15.65
2017-09-07T03:40:48.574Z,15.76
2017-09-07T03:41:14.683Z,15.64
2017-09-07T03:41:40.816Z,15.68
2017-09-07T03:42:06.919Z,15.65
2017-09-07T03:42:33.031Z,15.72
2017-09-07T03:42:59.146Z,15.76
2017-09-07T03:43:25.254Z,15.67
2017-09-07T03:43:51.372Z,15.67
2017-09-07T03:44:17.518Z,15.62
2017-09-07T03:44:43.619Z,15.75
2017-09-07T03:45:09.765Z,15.67
2017-09-07T03:45:35.873Z,15.67
2017-09-07T03:46:01.988Z,15.75
2017-09-07T03:46:28.095Z,15.73
2017-09-07T03:46:54.210Z,15.7
2017-09-07T03:47:20.340Z,15.64
2017-09-07T03:47:46.446Z,15.68
2017-09-07T03:48:12.552Z,15.64
2017-09-07T03:48:38.670Z,15.73
2017-09-07T03:49:04.773Z,15.7
2017-09-07T03:49:30.908Z,15.68
2017-09-07T03:49:57.042Z,15.73
2017-09-07T03:50:23.150Z,15.68
2017-09-07T03:50:49.264Z,15.75
2017-09-07T03:51:15.373Z,15.72
2017-09-07T03:51:41.480Z,15.73
2017-09-07T03:52:07.636Z,15.68
2017-09-07T03:52:33.713Z,15.75
2017-09-07T03:52:59.816Z,15.7
2017-09-07T03:53:25.932Z,15.76
2017-09-07T03:53:52.036Z,15.75
2017-09-07T03:54:18.175Z,15.73
2017-09-07T03:54:44.296Z,15.77
2017-09-07T03:55:10.399Z,15.68
2017-09-07T03:55:36.511Z,15.73
2017-09-07T03:56:02.622Z,15.84
2017-09-07T03:56:28.727Z,15.86
2017-09-07T03:56:54.831Z,15.86
2017-09-07T03:57:20.943Z,15.83
2017-09-07T03:57:47.053Z,15.77
2017-09-07T03:58:13.161Z,15.79
2017-09-07T03:58:39.296Z,15.79
2017-09-07T03:59:05.395Z,15.77
2017-09-07T03:59:31.509Z,15.76
2017-09-07T03:59:57.617Z,15.76
2017-09-07T04:00:23.720Z,15.77
2017-09-07T04:00:49.835Z,15.9
2017-09-07T04:01:15.940Z,15.88
2017-09-07T04:01:42.053Z,15.88
2017-09-07T04:02:08.163Z,15.8
2017-09-07T04:02:34.265Z,15.79
2017-09-07T04:03:00.374Z,15.86
2017-09-07T04:03:26.482Z,15.83
2017-09-07T04:03:52.624Z,15.8
2017-09-07T04:04:18.736Z,15.82
2017-09-07T04:04:44.840Z,15.76
2017-09-07T04:05:10.952Z,15.77
2017-09-07T04:05:37.065Z,15.82
2017-09-07T04:06:03.187Z,15.7
2017-09-07T04:06:29.298Z,15.76
2017-09-07T04:06:55.397Z,15.82
2017-09-07T04:07:21.510Z,15.82
2017-09-07T04:07:47.624Z,15.8
2017-09-07T04:08:13.726Z,15.68
2017-09-07T04:08:39.830Z,15.68
2017-09-07T04:09:05.944Z,15.65
2017-09-07T04:09:32.050Z,15.62
2017-09-07T04:09:58.186Z,15.67
2017-09-07T04:10:24.308Z,15.67
2017-09-07T04:10:50.413Z,15.67
2017-09-07T04:11:16.524Z,15.67
2017-09-07T04:11:42.637Z,15.65
2017-09-07T04:12:08.741Z,15.75
2017-09-07T04:12:34.846Z,15.72
2017-09-07T04:13:00.964Z,15.73
2017-09-07T04:13:27.068Z,15.67
2017-09-07T04:13:53.177Z,15.64
2017-09-07T04:14:19.398Z,15.55
2017-09-07T04:14:45.502Z,15.57
2017-09-07T04:15:11.612Z,15.58
2017-09-07T04:15:37.753Z,15.57
2017-09-07T04:16:03.862Z,15.58
2017-09-07T04:16:29.966Z,15.57
2017-09-07T04:16:56.073Z,15.57
2017-09-07T04:17:22.183Z,15.58
2017-09-07T04:17:48.290Z,15.64
2017-09-07T04:18:14.402Z,15.67
2017-09-07T04:18:40.553Z,15.68
2017-09-07T04:19:06.656Z,15.73
2017-09-07T04:19:32.770Z,15.65
2017-09-07T04:19:58.898Z,15.61
2017-09-07T04:20:25.001Z,15.57
2017-09-07T04:20:51.112Z,15.59
2017-09-07T04:21:17.256Z,15.55
2017-09-07T04:21:43.360Z,15.54
2017-09-07T04:22:09.475Z,15.55
2017-09-07T04:22:35.578Z,15.59
2017-09-07T04:23:01.686Z,15.65
2017-09-07T04:23:27.795Z,15.57
2017-09-07T04:23:53.909Z,15.57
2017-09-07T04:24:20.010Z,15.55
2017-09-07T04:24:46.118Z,15.58
2017-09-07T04:25:12.233Z,15.62
2017-09-07T04:25:38.338Z,15.59
2017-09-07T04:26:04.449Z,15.59
2017-09-07T04:26:30.554Z,15.68
2017-09-07T04:26:56.663Z,15.65
2017-09-07T04:27:22.777Z,15.67
2017-09-07T04:27:48.902Z,15.75
2017-09-07T04:28:15.007Z,15.77
2017-09-07T04:28:41.120Z,15.73
2017-09-07T04:29:07.223Z,15.77
2017-09-07T04:29:33.336Z,15.8
2017-09-07T04:29:59.446Z,15.77
2017-09-07T04:30:25.548Z,15.73
2017-09-07T04:30:51.676Z,15.79
2017-09-07T04:31:17.798Z,15.77
2017-09-07T04:31:43.907Z,15.77
2017-09-07T04:32:10.011Z,15.72
2017-09-07T04:32:36.125Z,15.76
2017-09-07T04:33:02.230Z,15.79
2017-09-07T04:33:28.343Z,15.68
2017-09-07T04:33:54.446Z,15.72
2017-09-07T04:34:20.592Z,15.67
2017-09-07T04:34:46.666Z,15.77
2017-09-07T04:35:12.769Z,15.76
2017-09-07T04:35:38.881Z,15.79
2017-09-07T04:36:04.992Z,15.86
2017-09-07T04:36:31.097Z,15.84
2017-09-07T04:36:57.236Z,15.84
2017-09-07T04:37:23.313Z,15.79
2017-09-07T04:37:49.420Z,15.86
2017-09-07T04:38:15.533Z,15.86
2017-09-07T04:38:41.638Z,15.82
2017-09-07T04:39:07.747Z,15.84
2017-09-07T04:39:33.859Z,15.77
2017-09-07T04:39:59.963Z,15.84
2017-09-07T04:40:26.066Z,15.8
2017-09-07T04:40:52.175Z,15.91
2017-09-07T04:41:18.278Z,15.82
2017-09-07T04:41:44.407Z,15.82
2017-09-07T04:42:10.523Z,15.79
2017-09-07T04:42:36.625Z,15.77
2017-09-07T04:43:02.738Z,15.86
2017-09-07T04:43:28.842Z,15.82
2017-09-07T04:43:54.949Z,15.86
2017-09-07T04:44:21.064Z,15.84
2017-09-07T04:44:47.172Z,15.76
2017-09-07T04:45:13.302Z,15.7
2017-09-07T04:45:39.421Z,15.76
2017-09-07T04:46:05.524Z,15.77
2017-09-07T04:46:31.655Z,15.77
2017-09-07T04:46:57.759Z,15.77
2017-09-07T04:47:23.867Z,15.82
2017-09-07T04:47:49.985Z,15.77
2017-09-07T04:48:16.088Z,15.77
2017-09-07T04:48:42.200Z,15.73
2017-09-07T04:49:08.303Z,15.75
2017-09-07T04:49:34.417Z,15.77
2017-09-07T04:50:00.525Z,15.67
2017-09-07T04:50:26.629Z,15.84
2017-09-07T04:50:52.743Z,15.82
2017-09-07T04:51:18.846Z,15.82
2017-09-07T04:51:44.952Z,15.7
2017-09-07T04:52:11.062Z,15.76
2017-09-07T04:52:37.171Z,15.75
2017-09-07T04:53:03.275Z,15.75
2017-09-07T04:53:29.382Z,15.77
2017-09-07T04:53:55.495Z,15.68
2017-09-07T04:54:21.598Z,15.73
2017-09-07T04:54:47.709Z,15.8
2017-09-07T04:55:13.825Z,15.7
2017-09-07T04:55:39.929Z,15.73
2017-09-07T04:56:06.044Z,15.64
2017-09-07T04:56:32.147Z,15.75
2017-09-07T04:56:58.256Z,15.73
2017-09-07T04:57:24.367Z,15.9
2017-09-07T04:57:50.480Z,15.8
2017-09-07T04:58:16.585Z,15.91
2017-09-07T04:58:42.691Z,15.84
2017-09-07T04:59:08.804Z,15.83
2017-09-07T04:59:34.907Z,15.9
2017-09-07T05:00:01.021Z,15.9
2017-09-07T05:00:27.130Z,15.9
2017-09-07T05:00:53.233Z,15.84
2017-09-07T05:01:19.354Z,15.83
2017-09-07T05:01:45.458Z,15.91
2017-09-07T05:02:11.563Z,15.83
2017-09-07T05:02:37.682Z,15.91
2017-09-07T05:03:03.781Z,15.84
2017-09-07T05:03:29.895Z,15.86
2017-09-07T05:03:55.997Z,15.88
2017-09-07T05:04:22.158Z,15.84
2017-09-07T05:04:48.279Z,15.97
2017-09-07T05:05:14.388Z,15.97
2017-09-07T05:05:40.508Z,15.9
2017-09-07T05:06:06.633Z,15.98
2017-09-07T05:06:32.744Z,16.02
2017-09-07T05:06:58.860Z,16.09
2017-09-07T05:07:24.964Z,16.04
2017-09-07T05:07:51.078Z,15.97
2017-09-07T05:08:17.185Z,16.02
2017-09-07T05:08:43.292Z,16.05
2017-09-07T05:09:09.399Z,16.05
2017-09-07T05:09:35.511Z,16.01
2017-09-07T05:10:01.622Z,16.09
2017-09-07T05:10:27.745Z,15.95
2017-09-07T05:10:53.851Z,16.04
2017-09-07T05:11:19.961Z,16
2017-09-07T05:11:46.071Z,16
2017-09-07T05:12:12.175Z,15.97
2017-09-07T05:12:38.281Z,15.97
2017-09-07T05:13:04.397Z,16.02
2017-09-07T05:13:30.498Z,16
2017-09-07T05:13:56.613Z,16.01
2017-09-07T05:14:22.722Z,16.04
2017-09-07T05:14:48.824Z,16
2017-09-07T05:15:14.937Z,16.09
2017-09-07T05:15:41.043Z,16.08
2017-09-07T05:16:07.149Z,15.98
2017-09-07T05:16:33.263Z,16.01
2017-09-07T05:16:59.388Z,16.05
2017-09-07T05:17:25.493Z,16.05
2017-09-07T05:17:51.604Z,16.02
2017-09-07T05:18:17.708Z,16
2017-09-07T05:18:43.815Z,16
2017-09-07T05:19:09.924Z,15.98
2017-09-07T05:19:36.031Z,16.08
2017-09-07T05:20:02.143Z,16.09
2017-09-07T05:20:28.256Z,16.13
2017-09-07T05:20:54.366Z,16.1
2017-09-07T05:21:20.469Z,16.1
2017-09-07T05:21:46.586Z,16.1
2017-09-07T05:22:12.697Z,16.02
2017-09-07T05:22:38.798Z,16.04
2017-09-07T05:23:04.913Z,16.04
2017-09-07T05:23:31.022Z,16.01
2017-09-07T05:23:57.125Z,15.98
2017-09-07T05:24:23.229Z,16.01
2017-09-07T05:24:49.340Z,15.9
2017-09-07T05:25:15.444Z,16.04
2017-09-07T05:25:41.552Z,16.02
2017-09-07T05:26:07.670Z,15.94
2017-09-07T05:26:33.773Z,15.95
2017-09-07T05:26:59.885Z,16.02
2017-09-07T05:27:25.997Z,16.01
2017-09-07T05:27:52.100Z,16.01
2017-09-07T05:28:18.204Z,15.88
2017-09-07T05:28:44.320Z,16.05
2017-09-07T05:29:10.423Z,15.98
2017-09-07T05:29:36.532Z,16.04
2017-09-07T05:30:02.636Z,16.02
2017-09-07T05:30:28.751Z,16.04
2017-09-07T05:30:54.862Z,16.09
2017-09-07T05:31:20.972Z,16.12
2017-09-07T05:31:47.085Z,16.05
2017-09-07T05:32:13.205Z,15.95
2017-09-07T05:32:39.316Z,16
2017-09-07T05:33:05.427Z,16.12
2017-09-07T05:33:31.531Z,16.02
2017-09-07T05:33:57.642Z,16.1
2017-09-07T05:34:23.749Z,16.15
2017-09-07T05:34:49.861Z,16.12
2017-09-07T05:35:15.964Z,16.08
2017-09-07T05:35:42.080Z,16.09
2017-09-07T05:36:08.188Z,16.05
2017-09-07T05:36:34.293Z,16.17
2017-09-07T05:37:00.400Z,16.1
2017-09-07T05:37:26.513Z,16.15
2017-09-07T05:37:52.619Z,16.09
2017-09-07T05:38:18.734Z,15.98
2017-09-07T05:38:44.837Z,16.12